Time;durP1;ratioP1;P1;durP2;ratioP2;P2;SDS_P1;SDS_P2;PMS_P1;PMS_P2;Temp;Humidity;BMP_temperature;BMP_pressure;BME280_temperature;BME280_humidity;BME280_pressure;Samples;Min_cycle;Max_cycle;Signal;HPM_P1;HPM_P2
2023/05/06 00:02:28;;;;;;;7.27;6.10;;;11.60;99.90;13.60;96849.00;;;;5097086;28;20203;-68
2023/05/06 00:05:17;;;;;;;8.80;7.40;;;11.60;99.90;13.30;96851.00;;;;5093430;28;20207;-67
2023/05/06 00:08:06;;;;;;;7.83;5.50;;;11.60;99.90;13.50;96843.00;;;;5094024;28;20227;-67
2023/05/06 00:10:54;;;;;;;8.50;7.37;;;11.60;99.90;13.60;96847.00;;;;5090581;28;20280;-68
2023/05/06 00:13:45;;;;;;;6.27;5.67;;;11.60;99.90;13.40;96839.00;;;;5096196;28;20194;-68
2023/05/06 00:16:33;;;;;;;6.90;5.50;;;11.70;99.90;13.40;96848.00;;;;5094700;28;20219;-68
2023/05/06 00:19:22;;;;;;;7.70;6.10;;;11.60;99.90;13.40;96844.00;;;;5101983;28;20564;-67
2023/05/06 00:22:11;;;;;;;7.00;5.67;;;11.60;99.90;13.30;96853.00;;;;5099591;28;20207;-68
2023/05/06 00:24:59;;;;;;;6.27;5.67;;;11.50;99.90;13.00;96859.00;;;;5088039;28;20216;-67
2023/05/06 00:27:48;;;;;;;6.57;5.97;;;11.50;99.90;12.80;96859.00;;;;5089589;28;20699;-68
2023/05/06 00:30:38;;;;;;;12.60;5.33;;;11.30;99.90;13.30;96856.00;;;;5098249;28;20198;-68
2023/05/06 00:33:27;;;;;;;6.63;5.90;;;11.30;99.90;13.50;96863.00;;;;5087921;28;20203;-68
2023/05/06 00:36:16;;;;;;;9.17;6.17;;;11.30;99.90;13.40;96865.00;;;;5090657;28;20234;-68
2023/05/06 00:39:05;;;;;;;6.20;5.57;;;11.40;99.90;13.10;96862.00;;;;5090836;28;20284;-68
2023/05/06 00:41:54;;;;;;;7.43;6.00;;;11.30;99.90;12.90;96862.00;;;;5094534;28;20218;-68
2023/05/06 00:44:42;;;;;;;7.43;6.13;;;11.30;99.90;12.90;96852.00;;;;5086745;28;20203;-69
2023/05/06 00:47:33;;;;;;;7.80;7.00;;;11.20;99.90;12.90;96860.00;;;;5090910;28;20211;-68
2023/05/06 00:50:22;;;;;;;8.30;7.00;;;11.20;99.90;13.00;96851.00;;;;5093717;28;20199;-68
2023/05/06 00:53:11;;;;;;;7.03;6.33;;;11.20;99.90;12.90;96856.00;;;;5089408;28;20200;-69
2023/05/06 00:56:00;;;;;;;6.97;6.10;;;11.10;99.90;12.50;96844.00;;;;5083420;28;20276;-71
2023/05/06 00:58:49;;;;;;;7.00;6.23;;;11.10;99.90;12.50;96844.00;;;;5082749;28;20687;-68
2023/05/06 01:01:37;;;;;;;7.83;5.77;;;11.00;99.90;12.70;96846.00;;;;5082755;28;20245;-68
2023/05/06 01:04:28;;;;;;;6.57;5.63;;;11.00;99.90;12.10;96859.00;;;;5095026;28;20191;-70
2023/05/06 01:07:29;;;;;;;7.47;6.47;;;10.90;99.90;12.30;96862.00;;;;5099957;28;20223;-68
2023/05/06 01:10:26;;;;;;;7.73;6.57;;;10.80;99.90;12.60;96858.00;;;;5098331;28;20195;-69
2023/05/06 01:13:23;;;;;;;7.80;6.80;;;10.80;99.90;13.00;96869.00;;;;5096965;28;20199;-67
2023/05/06 01:16:14;;;;;;;6.23;5.57;;;10.80;99.90;13.00;96862.00;;;;5091006;28;20249;-68
2023/05/06 01:19:09;;;;;;;9.23;5.87;;;10.90;99.90;13.00;96867.00;;;;5093111;28;20231;-68
2023/05/06 01:22:02;;;;;;;9.37;6.63;;;11.00;99.90;13.30;96868.00;;;;5098746;28;20199;-68
2023/05/06 01:24:52;;;;;;;7.20;6.20;;;11.10;99.90;13.50;96865.00;;;;5096032;28;20199;-68
2023/05/06 01:27:41;;;;;;;11.90;6.60;;;11.20;99.90;13.70;96874.00;;;;5091460;28;20222;-68
2023/05/06 01:30:40;;;;;;;8.53;6.17;;;11.30;99.90;13.70;96876.00;;;;5085002;28;20252;-68
2023/05/06 01:33:37;;;;;;;6.60;5.80;;;11.40;99.90;13.70;96883.00;;;;5090980;28;20187;-68
2023/05/06 01:36:33;;;;;;;6.67;5.83;;;11.50;99.90;13.30;96877.00;;;;5088713;28;20721;-69
2023/05/06 01:39:26;;;;;;;8.77;6.43;;;11.50;99.90;13.00;96874.00;;;;5085984;28;20206;-69
2023/05/06 01:42:18;;;;;;;8.30;6.23;;;11.40;99.90;13.00;96873.00;;;;5096768;28;20206;-69
2023/05/06 01:45:08;;;;;;;9.80;7.00;;;11.40;99.90;13.10;96875.00;;;;5094534;28;20744;-69
2023/05/06 01:47:57;;;;;;;8.07;6.97;;;11.40;99.90;13.40;96872.00;;;;5081445;28;20227;-69
2023/05/06 01:50:46;;;;;;;6.80;5.30;;;11.40;99.90;13.80;96874.00;;;;5086273;28;20195;-69
2023/05/06 01:53:35;;;;;;;7.00;6.30;;;11.50;99.90;13.90;96871.00;;;;5090357;28;20255;-69
2023/05/06 01:56:24;;;;;;;12.23;7.73;;;11.60;99.90;13.50;96863.00;;;;5090640;28;20714;-68
2023/05/06 01:59:14;;;;;;;7.57;6.03;;;11.60;99.90;13.60;96858.00;;;;5093013;28;20223;-68
2023/05/06 02:02:03;;;;;;;8.57;6.57;;;11.60;99.90;13.60;96859.00;;;;5086920;28;20685;-68
2023/05/06 02:04:53;;;;;;;6.93;5.70;;;11.70;99.90;12.70;96854.00;;;;5093776;28;20231;-70
2023/05/06 02:07:42;;;;;;;8.63;6.07;;;11.50;99.90;13.20;96859.00;;;;5085141;28;20744;-68
2023/05/06 02:10:30;;;;;;;7.67;5.50;;;11.50;99.90;13.30;96842.00;;;;5098127;28;20209;-68
2023/05/06 02:13:19;;;;;;;6.47;5.80;;;11.40;99.90;13.70;96843.00;;;;5093930;28;20195;-68
2023/05/06 02:16:09;;;;;;;8.70;7.87;;;11.60;99.90;13.80;96847.00;;;;5095152;28;20232;-68
2023/05/06 02:18:58;;;;;;;9.83;7.10;;;11.60;99.90;13.50;96835.00;;;;5098139;28;20681;-68
2023/05/06 02:21:47;;;;;;;9.07;7.03;;;11.60;99.90;12.40;96825.00;;;;5093328;28;20226;-71
2023/05/06 02:24:35;;;;;;;6.83;5.97;;;11.50;99.90;12.90;96837.00;;;;5086078;28;20267;-67
2023/05/06 02:27:24;;;;;;;6.27;5.20;;;11.40;99.90;13.00;96830.00;;;;5091594;28;20783;-68
2023/05/06 02:30:13;;;;;;;10.87;6.67;;;11.40;99.90;12.70;96828.00;;;;5087981;28;20646;-66
2023/05/06 02:33:03;;;;;;;9.00;6.20;;;11.30;99.90;13.00;96833.00;;;;5089929;28;20623;-71
2023/05/06 02:35:52;;;;;;;8.50;6.87;;;11.30;99.90;12.50;96830.00;;;;5089449;28;20222;-71
2023/05/06 02:38:41;;;;;;;6.13;5.53;;;11.30;99.90;12.60;96829.00;;;;5088151;28;20267;-65
2023/05/06 02:41:29;;;;;;;8.10;6.97;;;11.20;99.90;13.00;96836.00;;;;5093090;28;20571;-66
2023/05/06 02:44:18;;;;;;;7.40;6.70;;;11.30;99.90;13.40;96830.00;;;;5094060;28;20918;-66
2023/05/06 02:47:07;;;;;;;9.50;7.13;;;11.30;99.90;13.40;96817.00;;;;5089988;28;20273;-67
2023/05/06 02:49:57;;;;;;;8.13;6.77;;;11.40;99.90;13.20;96828.00;;;;5087181;28;20664;-66
2023/05/06 02:52:46;;;;;;;7.83;6.97;;;11.30;99.90;12.80;96824.00;;;;5089648;28;20211;-66
2023/05/06 02:55:35;;;;;;;7.40;6.70;;;11.30;99.90;12.90;96828.00;;;;5083004;28;20743;-67
2023/05/06 02:58:25;;;;;;;8.40;7.27;;;11.30;99.90;12.90;96835.00;;;;5095748;28;20209;-67
2023/05/06 03:01:13;;;;;;;9.87;7.30;;;11.20;99.90;12.90;96833.00;;;;5089728;28;20261;-67
2023/05/06 03:04:02;;;;;;;11.67;6.70;;;11.20;99.90;13.30;96824.00;;;;5093523;28;20202;-67
2023/05/06 03:06:52;;;;;;;6.83;6.10;;;11.20;99.90;13.30;96826.00;;;;5097592;28;20230;-66
2023/05/06 03:09:41;;;;;;;8.03;6.80;;;11.20;99.90;13.20;96814.00;;;;5087961;28;20621;-67
2023/05/06 03:12:29;;;;;;;8.53;6.40;;;11.30;99.90;13.00;96816.00;;;;5090437;28;20610;-67
2023/05/06 03:15:18;;;;;;;7.43;6.73;;;11.20;99.90;12.80;96810.00;;;;5089618;28;20680;-69
2023/05/06 03:18:07;;;;;;;7.20;6.03;;;11.10;99.90;12.50;96801.00;;;;5095724;28;20248;-70
2023/05/06 03:20:56;;;;;;;7.87;7.10;;;11.00;99.90;12.80;96803.00;;;;5092753;28;20206;-67
2023/05/06 03:23:46;;;;;;;7.60;6.50;;;11.00;99.90;13.10;96800.00;;;;5086948;28;20253;-66
2023/05/06 03:26:34;;;;;;;7.97;7.00;;;11.00;99.90;13.00;96802.00;;;;5088885;28;20237;-67
2023/05/06 03:29:23;;;;;;;9.47;7.07;;;11.00;99.90;12.80;96802.00;;;;5090998;28;20191;-67
2023/05/06 03:32:12;;;;;;;9.30;7.50;;;11.00;99.90;12.50;96785.00;;;;5092344;28;20220;-66
2023/05/06 03:35:00;;;;;;;8.43;6.93;;;11.00;99.90;12.70;96795.00;;;;5092273;28;20203;-67
2023/05/06 03:37:49;;;;;;;7.23;6.50;;;10.90;99.90;12.80;96796.00;;;;5097172;28;20707;-67
2023/05/06 03:40:39;;;;;;;8.30;7.33;;;10.90;99.90;12.60;96790.00;;;;5099610;28;20202;-67
2023/05/06 03:43:28;;;;;;;10.37;7.17;;;10.80;99.90;12.20;96787.00;;;;5100269;28;20202;-67
2023/05/06 03:46:16;;;;;;;8.80;6.93;;;10.70;99.90;11.80;96792.00;;;;5099236;28;20304;-71
2023/05/06 03:49:05;;;;;;;9.73;7.30;;;10.60;99.90;11.70;96791.00;;;;5097561;28;20639;-66
2023/05/06 03:51:55;;;;;;;7.33;6.57;;;10.50;99.90;11.80;96783.00;;;;5084360;28;20762;-71
2023/05/06 03:54:43;;;;;;;9.17;6.47;;;10.40;99.90;11.80;96783.00;;;;5091535;28;20191;-64
2023/05/06 03:57:33;;;;;;;6.60;5.97;;;10.40;99.90;11.80;96769.00;;;;5093748;28;21180;-68
2023/05/06 04:00:22;;;;;;;8.57;7.73;;;10.40;99.90;12.00;96772.00;;;;5093540;28;20228;-68
2023/05/06 04:03:11;;;;;;;11.27;7.83;;;10.30;99.90;12.40;96780.00;;;;5099644;28;20291;-67
2023/05/06 04:05:59;;;;;;;8.47;6.87;;;10.40;99.90;12.10;96790.00;;;;5103423;28;20657;-66
2023/05/06 04:08:48;;;;;;;7.97;6.60;;;10.50;99.90;11.60;96790.00;;;;5096748;28;20677;-70
2023/05/06 04:11:37;;;;;;;7.60;6.87;;;10.40;99.90;11.50;96798.00;;;;5091153;28;20191;-65
2023/05/06 04:14:27;;;;;;;6.97;6.37;;;10.30;99.90;12.00;96794.00;;;;5103465;28;20226;-65
2023/05/06 04:17:15;;;;;;;9.93;7.03;;;10.30;99.90;12.60;96807.00;;;;5099202;28;20227;-66
2023/05/06 04:20:06;;;;;;;9.10;7.07;;;10.40;99.90;12.80;96802.00;;;;5104172;28;20292;-66
2023/05/06 04:22:54;;;;;;;7.10;6.17;;;10.60;99.90;13.10;96804.00;;;;5093212;28;20211;-68
2023/05/06 04:25:47;;;;;;;8.20;6.30;;;10.70;99.90;13.20;96800.00;;;;5090185;28;20207;-68
2023/05/06 04:28:36;;;;;;;7.20;6.50;;;10.80;99.90;13.10;96803.00;;;;5098429;28;20194;-68
2023/05/06 04:31:28;;;;;;;8.07;5.63;;;11.00;99.90;13.20;96800.00;;;;5101225;28;20252;-67
2023/05/06 04:34:17;;;;;;;6.63;5.97;;;11.10;99.90;12.90;96804.00;;;;5089525;28;20195;-68
2023/05/06 04:37:06;;;;;;;8.67;6.47;;;11.10;99.90;12.60;96795.00;;;;5100623;28;20233;-69
2023/05/06 04:39:54;;;;;;;7.27;6.50;;;11.10;99.90;13.10;96809.00;;;;5102573;28;20572;-69
2023/05/06 04:42:43;;;;;;;11.80;6.53;;;11.10;99.90;13.30;96804.00;;;;5100870;28;20280;-68
2023/05/06 04:45:33;;;;;;;8.23;6.23;;;11.20;99.90;13.30;96815.00;;;;5103089;28;20706;-67
2023/05/06 04:48:23;;;;;;;7.23;6.53;;;11.20;99.90;13.40;96823.00;;;;5094886;28;20207;-68
2023/05/06 04:51:12;;;;;;;8.17;6.67;;;11.30;99.90;13.30;96816.00;;;;5093617;28;20356;-67
2023/05/06 04:54:00;;;;;;;7.07;6.37;;;11.40;99.90;13.40;96818.00;;;;5092713;28;20239;-67
2023/05/06 04:56:49;;;;;;;7.77;5.87;;;11.40;99.90;13.80;96822.00;;;;5103760;28;20223;-67
2023/05/06 04:59:38;;;;;;;11.70;6.27;;;11.50;99.90;13.60;96819.00;;;;5089906;28;20871;-67
2023/05/06 05:02:26;;;;;;;8.63;7.13;;;11.60;99.90;14.00;96822.00;;;;5081501;28;20238;-67
2023/05/06 05:05:17;;;;;;;8.33;5.43;;;11.70;99.90;14.10;96831.00;;;;5094394;28;20199;-67
2023/05/06 05:08:06;;;;;;;6.83;6.13;;;11.80;99.90;13.70;96828.00;;;;5089485;28;20292;-68
2023/05/06 05:10:54;;;;;;;7.00;6.30;;;11.80;99.90;13.80;96822.00;;;;5085936;28;20242;-68
2023/05/06 05:13:43;;;;;;;6.00;5.40;;;11.80;99.90;13.70;96825.00;;;;5085415;28;20187;-68
2023/05/06 05:16:32;;;;;;;9.33;7.27;;;11.90;99.90;14.00;96830.00;;;;5093294;28;20870;-68
2023/05/06 05:19:20;;;;;;;6.60;5.90;;;11.90;99.90;13.90;96836.00;;;;5091649;28;20195;-68
2023/05/06 05:22:10;;;;;;;6.53;5.37;;;12.00;99.90;14.00;96826.00;;;;5093836;28;20308;-67
2023/05/06 05:24:59;;;;;;;7.70;5.30;;;12.00;99.90;13.80;96831.00;;;;5086604;28;20200;-68
2023/05/06 05:27:48;;;;;;;6.17;5.30;;;12.00;99.90;13.20;96828.00;;;;5092151;28;20218;-69
2023/05/06 05:30:36;;;;;;;7.03;5.50;;;12.00;99.90;13.00;96834.00;;;;5093221;28;20239;-71
2023/05/06 05:33:25;;;;;;;6.20;5.60;;;11.80;99.90;12.90;96833.00;;;;5089293;28;20203;-71
2023/05/06 05:36:14;;;;;;;6.40;5.80;;;11.70;99.90;13.40;96829.00;;;;5085592;28;20218;-67
2023/05/06 05:39:05;;;;;;;6.97;5.27;;;11.70;99.90;13.80;96838.00;;;;5086815;28;20230;-67
2023/05/06 05:41:53;;;;;;;6.47;5.63;;;11.90;99.90;14.10;96832.00;;;;5084145;28;20195;-66
2023/05/06 05:44:42;;;;;;;7.50;5.73;;;12.00;99.90;14.70;96835.00;;;;5085943;28;20196;-66
2023/05/06 05:47:30;;;;;;;5.77;5.27;;;12.30;99.90;14.80;96837.00;;;;5073328;28;20226;-68
2023/05/06 05:50:19;;;;;;;6.03;5.27;;;12.50;99.90;15.50;96849.00;;;;5091863;28;20198;-68
2023/05/06 05:53:08;;;;;;;7.70;6.00;;;12.80;99.90;15.70;96859.00;;;;5089351;28;20199;-68
2023/05/06 05:55:58;;;;;;;6.03;5.47;;;13.10;99.90;16.00;96859.00;;;;5086598;28;20214;-68
2023/05/06 05:58:47;;;;;;;8.57;6.47;;;13.30;99.90;16.30;96853.00;;;;5076324;28;20234;-68
2023/05/06 06:01:36;;;;;;;7.83;6.27;;;13.50;99.90;16.30;96857.00;;;;5084604;28;20244;-68
2023/05/06 06:04:24;;;;;;;10.03;6.27;;;13.70;99.90;16.60;96860.00;;;;5088608;28;20214;-68
2023/05/06 06:07:13;;;;;;;7.07;6.47;;;13.90;99.90;16.40;96857.00;;;;5086370;28;20690;-67
2023/05/06 06:10:03;;;;;;;6.97;6.13;;;14.00;99.90;16.50;96849.00;;;;5076426;28;20204;-67
2023/05/06 06:12:53;;;;;;;8.47;7.57;;;14.10;99.90;16.50;96858.00;;;;5080510;28;20203;-67
2023/05/06 06:15:42;;;;;;;9.20;7.70;;;14.20;99.90;16.60;96856.00;;;;5078909;28;20203;-68
2023/05/06 06:18:30;;;;;;;7.80;6.87;;;14.30;99.90;16.60;96854.00;;;;5084980;28;20227;-67
2023/05/06 06:21:19;;;;;;;8.47;7.60;;;14.30;99.90;16.70;96856.00;;;;5078195;28;22134;-68
2023/05/06 06:24:08;;;;;;;11.33;7.53;;;14.40;99.90;16.90;96856.00;;;;5088029;28;20233;-67
2023/05/06 06:26:56;;;;;;;6.67;6.07;;;14.50;99.90;17.20;96867.00;;;;5081508;28;20292;-68
2023/05/06 06:29:48;;;;;;;8.70;7.33;;;14.70;99.90;17.20;96871.00;;;;5081438;28;20215;-68
2023/05/06 06:32:48;;;;;;;9.20;7.40;;;14.70;99.90;17.40;96855.00;;;;5083096;28;20614;-67
2023/05/06 06:35:37;;;;;;;13.30;7.83;;;14.90;99.90;17.50;96861.00;;;;5090039;28;20199;-67
2023/05/06 06:38:26;;;;;;;9.80;6.77;;;15.00;99.90;18.00;96861.00;;;;5091567;28;20211;-68
2023/05/06 06:41:15;;;;;;;11.53;7.73;;;15.20;99.90;17.90;96859.00;;;;5085073;28;20584;-67
2023/05/06 06:44:03;;;;;;;9.07;7.33;;;15.30;99.90;17.60;96865.00;;;;5085340;28;20195;-67
2023/05/06 06:46:54;;;;;;;9.27;7.83;;;15.40;99.90;18.00;96866.00;;;;5080698;28;20239;-67
2023/05/06 06:49:42;;;;;;;10.87;8.17;;;15.50;99.90;18.40;96853.00;;;;5076875;28;20234;-67
2023/05/06 06:52:31;;;;;;;9.30;7.37;;;15.60;99.90;18.60;96863.00;;;;5081773;28;20198;-68
2023/05/06 06:55:20;;;;;;;9.40;7.30;;;15.80;99.90;18.50;96871.00;;;;5080059;28;20222;-68
2023/05/06 06:58:09;;;;;;;8.87;7.97;;;16.00;99.90;18.60;96852.00;;;;5076548;28;20566;-68
2023/05/06 07:00:57;;;;;;;10.63;7.17;;;16.10;99.90;19.00;96855.00;;;;5080596;28;20215;-67
2023/05/06 07:03:47;;;;;;;10.07;7.50;;;16.30;99.90;19.60;96849.00;;;;5072747;28;20687;-68
2023/05/06 07:06:36;;;;;;;7.97;7.07;;;16.50;99.90;19.50;96850.00;;;;5085886;28;20211;-68
2023/05/06 07:09:25;;;;;;;12.43;7.47;;;16.80;99.90;19.70;96846.00;;;;5081878;28;20272;-68
2023/05/06 07:12:14;;;;;;;11.60;7.57;;;17.00;99.90;19.70;96858.00;;;;5084558;28;20205;-69
2023/05/06 07:15:05;;;;;;;9.67;7.23;;;17.10;99.90;19.50;96858.00;;;;5083272;28;20215;-69
2023/05/06 07:17:54;;;;;;;11.53;7.57;;;17.20;99.90;19.90;96861.00;;;;5083460;28;20234;-69
2023/05/06 07:20:44;;;;;;;8.87;7.43;;;17.30;99.90;20.00;96853.00;;;;5080894;28;20204;-68
2023/05/06 07:23:33;;;;;;;9.63;6.50;;;17.40;99.90;20.00;96850.00;;;;5093224;28;21002;-69
2023/05/06 07:26:21;;;;;;;7.57;6.60;;;17.40;99.90;20.40;96853.00;;;;5084922;28;20226;-68
2023/05/06 07:29:10;;;;;;;7.93;6.57;;;17.60;99.90;20.60;96846.00;;;;5088534;28;20240;-69
2023/05/06 07:31:59;;;;;;;8.33;5.80;;;17.70;99.90;20.30;96845.00;;;;5086459;28;20200;-68
2023/05/06 07:34:47;;;;;;;6.60;6.00;;;17.80;99.90;21.00;96834.00;;;;5090916;28;20283;-69
2023/05/06 07:37:37;;;;;;;6.53;5.93;;;18.10;99.90;21.40;96842.00;;;;5086290;28;20733;-68
2023/05/06 07:40:26;;;;;;;10.17;6.00;;;18.30;99.90;21.60;96839.00;;;;5081115;28;20275;-68
2023/05/06 07:43:15;;;;;;;6.93;5.33;;;18.50;99.90;22.00;96834.00;;;;5084819;28;20672;-69
2023/05/06 07:46:04;;;;;;;7.20;5.80;;;18.80;99.90;21.60;96835.00;;;;5085564;28;20230;-68
2023/05/06 07:48:53;;;;;;;8.23;5.20;;;19.00;99.90;21.90;96840.00;;;;5082358;28;20203;-69
2023/05/06 07:51:44;;;;;;;6.63;5.20;;;19.10;99.90;21.90;96845.00;;;;5087562;28;20288;-69
2023/05/06 07:54:34;;;;;;;5.23;4.73;;;19.20;99.90;22.50;96835.00;;;;5086023;28;20269;-69
2023/05/06 07:57:23;;;;;;;5.60;4.67;;;19.40;99.90;22.90;96822.00;;;;5084352;28;20288;-70
2023/05/06 08:00:12;;;;;;;5.17;4.60;;;19.70;99.90;23.20;96842.00;;;;5060941;28;20220;-69
2023/05/06 08:03:01;;;;;;;5.70;5.10;;;19.90;99.90;23.20;96835.00;;;;5065881;28;20204;-69
2023/05/06 08:05:50;;;;;;;5.13;4.23;;;20.10;99.90;23.80;96832.00;;;;5061225;28;20200;-69
2023/05/06 08:08:39;;;;;;;6.57;4.47;;;20.40;99.90;24.10;96829.00;;;;5064109;28;20201;-69
2023/05/06 08:11:29;;;;;;;5.83;4.30;;;20.70;99.90;24.40;96822.00;;;;5058602;28;20212;-69
2023/05/06 08:14:18;;;;;;;7.73;4.50;;;21.00;99.90;24.80;96825.00;;;;5068013;28;20215;-69
2023/05/06 08:17:06;;;;;;;4.50;4.10;;;21.30;99.90;24.60;96843.00;;;;5070312;28;20219;-69
2023/05/06 08:19:55;;;;;;;4.20;3.87;;;21.50;99.90;24.70;96832.00;;;;5070460;28;20270;-69
2023/05/06 08:22:44;;;;;;;4.33;3.37;;;21.60;99.90;24.90;96839.00;;;;5077123;28;20208;-69
2023/05/06 08:25:32;;;;;;;4.07;3.67;;;21.80;99.90;25.00;96833.00;;;;5072825;28;20200;-69
2023/05/06 08:28:22;;;;;;;4.10;3.70;;;21.90;99.90;25.20;96836.00;;;;5073144;28;20236;-68
2023/05/06 08:31:12;;;;;;;4.73;2.97;;;22.10;99.90;25.50;96829.00;;;;5068130;28;20205;-68
2023/05/06 08:34:01;;;;;;;3.43;3.13;;;22.30;99.90;25.70;96829.00;;;;5075021;28;20206;-69
2023/05/06 08:36:50;;;;;;;2.83;2.53;;;22.50;99.50;25.90;96835.00;;;;5062743;28;20617;-70
2023/05/06 08:39:38;;;;;;;2.50;2.13;;;22.70;98.00;25.80;96821.00;;;;5059402;28;20294;-70
2023/05/06 08:42:30;;;;;;;2.50;2.30;;;22.80;96.40;26.10;96832.00;;;;5058932;28;20200;-70
2023/05/06 08:45:20;;;;;;;2.70;2.47;;;22.90;96.30;26.10;96831.00;;;;5050215;28;20247;-70
2023/05/06 08:48:09;;;;;;;4.23;3.53;;;23.10;94.50;26.60;96834.00;;;;5065170;28;20213;-69
2023/05/06 08:51:03;;;;;;;3.40;3.10;;;23.20;95.60;26.40;96839.00;;;;5051257;28;20204;-69
2023/05/06 08:53:53;;;;;;;3.47;2.87;;;23.40;95.40;26.20;96836.00;;;;5057139;28;20230;-69
2023/05/06 08:56:47;;;;;;;3.83;3.07;;;23.40;93.80;26.30;96828.00;;;;5067499;28;20232;-69
2023/05/06 08:59:36;;;;;;;3.13;2.83;;;23.40;93.30;26.20;96832.00;;;;5086737;28;20764;-69
2023/05/06 09:02:27;;;;;;;4.57;2.87;;;23.40;92.60;26.20;96825.00;;;;5082505;28;20218;-69
2023/05/06 09:05:16;;;;;;;2.70;2.50;;;23.40;91.50;26.70;96830.00;;;;5086318;28;20622;-69
2023/05/06 09:08:05;;;;;;;5.43;3.30;;;23.50;91.90;26.50;96835.00;;;;5089298;28;20265;-70
2023/05/06 09:10:54;;;;;;;5.63;3.23;;;23.60;90.80;26.90;96821.00;;;;5089009;28;20237;-69
2023/05/06 09:13:43;;;;;;;4.07;2.90;;;23.80;91.50;27.10;96821.00;;;;5077821;28;20226;-69
2023/05/06 09:16:31;;;;;;;2.30;2.10;;;23.90;91.70;27.20;96824.00;;;;5083080;28;20877;-70
2023/05/06 09:19:22;;;;;;;3.23;2.70;;;24.10;90.70;27.70;96822.00;;;;5079339;28;20268;-69
2023/05/06 09:22:11;;;;;;;3.33;2.77;;;24.30;90.30;27.70;96820.00;;;;5081483;28;20271;-71
2023/05/06 09:25:00;;;;;;;3.50;3.23;;;24.50;89.10;28.20;96814.00;;;;5090008;28;20261;-70
2023/05/06 09:27:49;;;;;;;4.43;2.33;;;24.70;91.70;26.50;96801.00;;;;5082825;28;20234;-69
2023/05/06 09:30:40;;;;;;;8.43;3.27;;;24.70;93.00;27.30;96811.00;;;;5080675;28;20209;-70
2023/05/06 09:33:28;;;;;;;4.10;2.47;;;24.60;98.90;27.60;96815.00;;;;5077720;28;20192;-69
2023/05/06 09:36:19;;;;;;;4.50;2.63;;;24.70;97.90;27.60;96813.00;;;;5078564;28;20229;-69
2023/05/06 09:39:08;;;;;;;2.93;2.63;;;24.70;97.80;27.20;96812.00;;;;5076268;28;20258;-70
2023/05/06 09:41:57;;;;;;;2.77;2.57;;;24.60;96.60;27.20;96815.00;;;;5082352;28;20204;-69
2023/05/06 09:44:46;;;;;;;5.03;3.20;;;24.50;96.80;26.40;96822.00;;;;5073030;28;20242;-69
2023/05/06 09:47:36;;;;;;;4.63;2.20;;;24.50;95.50;26.00;96820.00;;;;5079348;28;20220;-70
2023/05/06 09:50:25;;;;;;;2.00;1.83;;;24.10;96.20;26.40;96810.00;;;;5080062;28;20671;-69
2023/05/06 09:53:17;;;;;;;2.43;2.17;;;23.90;95.80;27.00;96801.00;;;;5076292;28;20616;-69
2023/05/06 09:56:07;;;;;;;2.20;2.00;;;24.00;96.10;27.10;96803.00;;;;5077619;28;20226;-70
2023/05/06 09:58:56;;;;;;;4.37;2.10;;;24.00;96.10;27.20;96816.00;;;;5075879;28;20555;-69
2023/05/06 10:01:45;;;;;;;2.03;1.80;;;23.90;95.80;27.50;96804.00;;;;5075709;28;20196;-69
2023/05/06 10:04:38;;;;;;;3.83;2.20;;;24.20;95.80;27.60;96797.00;;;;5073298;28;20199;-70
2023/05/06 10:07:29;;;;;;;3.33;1.80;;;24.30;96.30;27.20;96804.00;;;;5082530;28;20218;-72
2023/05/06 10:10:19;;;;;;;2.17;1.87;;;24.60;94.90;25.50;96782.00;;;;5073840;28;20195;-66
2023/05/06 10:13:08;;;;;;;2.63;2.20;;;24.20;94.10;24.70;96783.00;;;;5081395;28;20223;-75
2023/05/06 10:15:59;;;;;;;3.00;2.70;;;23.90;94.70;26.00;96775.00;;;;5084974;28;20214;-66
2023/05/06 10:18:50;;;;;;;2.20;2.00;;;23.80;95.80;26.30;96765.00;;;;5076085;28;20195;-67
2023/05/06 10:21:43;;;;;;;3.57;2.53;;;23.80;95.00;28.30;96762.00;;;;5084447;28;20207;-66
2023/05/06 10:24:41;;;;;;;4.80;2.30;;;24.40;95.30;28.70;96752.00;;;;5076327;28;20206;-67
2023/05/06 10:27:35;;;;;;;7.20;3.30;;;24.90;94.70;30.10;96751.00;;;;5076317;28;20573;-67
2023/05/06 10:30:25;;;;;;;4.57;2.87;;;25.60;95.10;30.00;96768.00;;;;5075736;28;20192;-67
2023/05/06 10:33:15;;;;;;;2.30;2.10;;;26.20;95.90;29.60;96733.00;;;;5078099;28;20265;-70
2023/05/06 10:36:17;;;;;;;2.27;2.03;;;26.30;96.20;30.70;96741.00;;;;5073095;28;20210;-68
2023/05/06 10:39:09;;;;;;;5.07;2.03;;;26.70;99.90;31.00;96727.00;;;;5078662;28;20627;-70
2023/05/06 10:41:58;;;;;;;2.13;1.93;;;27.20;99.90;29.30;96733.00;;;;5085507;28;20214;-69
2023/05/06 10:45:03;;;;;;;1.83;1.70;;;27.20;99.90;29.40;96772.00;;;;5085417;28;20214;-68
2023/05/06 10:48:11;;;;;;;2.57;2.03;;;;;28.80;96771.00;;;;5086725;28;20242;-68
2023/05/06 10:51:26;;;;;;;3.07;2.50;;;;;28.80;96762.00;;;;5085955;28;20555;-68
2023/05/06 10:54:23;;;;;;;2.57;2.37;;;;;27.80;96714.00;;;;5086537;28;20209;-72
2023/05/06 10:57:12;;;;;;;2.27;2.00;;;;;26.50;96733.00;;;;5080571;28;20229;-70
2023/05/06 11:00:03;;;;;;;2.70;1.90;;;;;25.90;96754.00;;;;5092560;28;20293;-73
2023/05/06 11:03:02;;;;;;;5.80;2.50;;;;;25.80;96755.00;;;;5076956;28;20227;-68
2023/05/06 11:05:52;;;;;;;2.37;2.10;;;;;24.90;96749.00;;;;5078125;28;20204;-75
2023/05/06 11:08:41;;;;;;;5.03;2.20;;;;;25.10;96754.00;;;;5087029;28;20571;-65
2023/05/06 11:11:50;;;;;;;1.87;1.77;;;;;24.80;96750.00;;;;5083151;28;20200;-74
2023/05/06 11:14:40;;;;;;;2.77;2.47;;;;;25.10;96755.00;;;;5089601;28;20253;-68
2023/05/06 11:17:34;;;;;;;2.40;2.23;;;;;24.70;96752.00;;;;5082402;28;20222;-69
2023/05/06 11:20:24;;;;;;;2.63;2.43;;;;;24.50;96759.00;;;;5087207;28;20261;-69
2023/05/06 11:23:13;;;;;;;3.93;3.33;;;22.80;76.20;24.10;96763.00;;;;5086705;28;20265;-65
2023/05/06 11:26:07;;;;;;;3.73;2.90;;;22.70;77.50;25.60;96759.00;;;;5091012;28;20257;-66
2023/05/06 11:28:55;;;;;;;4.07;2.10;;;22.80;76.50;25.90;96755.00;;;;5095406;28;20205;-65
2023/05/06 11:31:45;;;;;;;3.97;2.43;;;23.00;76.40;26.00;96772.00;;;;5084683;28;20706;-67
2023/05/06 11:34:37;;;;;;;5.60;2.53;;;23.20;75.70;26.20;96764.00;;;;5087579;28;20706;-65
2023/05/06 11:37:27;;;;;;;4.23;3.83;;;23.30;76.70;26.60;96776.00;;;;5087500;28;20737;-66
2023/05/06 11:40:17;;;;;;;3.83;3.20;;;23.50;77.80;26.80;96770.00;;;;5092443;28;20242;-66
2023/05/06 11:43:13;;;;;;;4.37;2.83;;;23.50;78.20;26.60;96770.00;;;;5090708;28;20203;-65
2023/05/06 11:46:01;;;;;;;4.17;3.30;;;23.70;78.60;26.70;96769.00;;;;5091894;28;20219;-65
2023/05/06 11:48:51;;;;;;;2.93;2.63;;;23.80;78.30;26.50;96774.00;;;;5089957;28;20677;-66
2023/05/06 11:51:41;;;;;;;2.93;2.63;;;23.80;77.40;26.30;96772.00;;;;5078876;28;20214;-66
2023/05/06 11:54:34;;;;;;;4.27;3.03;;;23.70;76.80;26.50;96773.00;;;;5080691;28;20920;-65
2023/05/06 11:57:23;;;;;;;7.13;3.03;;;24.10;77.90;26.70;96776.00;;;;5084955;28;20592;-67
2023/05/06 12:00:13;;;;;;;3.13;2.83;;;23.80;78.30;26.80;96781.00;;;;5061975;28;20779;-66
2023/05/06 12:03:02;;;;;;;3.23;2.97;;;23.80;78.40;27.00;96784.00;;;;5060130;28;20208;-66
2023/05/06 12:05:52;;;;;;;3.70;3.40;;;23.90;78.90;27.10;96780.00;;;;5065060;28;20204;-66
2023/05/06 12:08:42;;;;;;;3.70;2.70;;;24.00;78.70;27.30;96776.00;;;;5065072;28;20201;-66
2023/05/06 12:11:32;;;;;;;3.50;3.03;;;24.20;78.70;27.50;96784.00;;;;5061059;28;20634;-66
2023/05/06 12:14:21;;;;;;;3.33;2.87;;;24.30;78.40;27.40;96779.00;;;;5062338;28;20200;-66
2023/05/06 12:17:11;;;;;;;5.13;2.47;;;24.40;76.30;27.60;96769.00;;;;5064452;28;20223;-67
2023/05/06 12:19:59;;;;;;;4.23;2.93;;;24.50;76.30;27.70;96767.00;;;;5066839;28;20226;-66
2023/05/06 12:23:06;;;;;;;2.60;2.40;;;24.60;76.40;27.80;96773.00;;;;5067869;28;20210;-66
2023/05/06 12:26:05;;;;;;;4.17;3.07;;;24.70;75.10;28.00;96768.00;;;;5067735;28;20209;-67
2023/05/06 12:29:09;;;;;;;5.77;3.20;;;24.80;74.80;28.10;96770.00;;;;5064073;28;20212;-66
2023/05/06 12:32:09;;;;;;;2.57;2.37;;;24.90;74.80;28.40;96765.00;;;;5062988;28;20210;-66
2023/05/06 12:34:59;;;;;;;3.43;3.13;;;25.10;75.70;28.10;96768.00;;;;5070105;28;20213;-66
2023/05/06 12:37:47;;;;;;;4.93;2.87;;;25.20;74.50;25.40;96751.00;;;;5070565;28;20230;-66
2023/05/06 12:40:36;;;;;;;2.63;2.40;;;24.70;74.50;25.00;96753.00;;;;5070646;28;20278;-68